Time;durP1;ratioP1;P1;durP2;ratioP2;P2;SDS_P1;SDS_P2;PMS_P1;PMS_P2;Temp;Humidity;BMP_temperature;BMP_pressure;BME280_temperature;BME280_humidity;BME280_pressure;Samples;Min_cycle;Max_cycle;Signal;HPM_P1;HPM_P2
2021/05/02 00:02:03;;;;;;;19.23;14.20;;;7.50;74.20;;;;;;5093859;28;20024;-72
2021/05/02 00:04:29;;;;;;;17.88;13.88;;;7.40;74.50;;;;;;5060279;28;20489;-72
2021/05/02 00:06:55;;;;;;;19.65;14.68;;;7.40;74.60;;;;;;5076528;28;20039;-72
2021/05/02 00:09:21;;;;;;;18.92;13.75;;;7.40;74.70;;;;;;5078748;28;20052;-72
2021/05/02 00:11:46;;;;;;;18.08;13.75;;;7.40;74.90;;;;;;5065548;28;20404;-72
2021/05/02 00:14:12;;;;;;;18.15;13.80;;;7.30;75.00;;;;;;5075572;28;20032;-72
2021/05/02 00:16:38;;;;;;;18.65;12.45;;;7.40;75.10;;;;;;5080904;28;20111;-72
2021/05/02 00:19:11;;;;;;;21.40;16.13;;;7.40;75.00;;;;;;5077331;28;20106;-72
2021/05/02 00:21:37;;;;;;;17.67;13.80;;;7.40;75.40;;;;;;5077705;28;20048;-72
2021/05/02 00:24:04;;;;;;;17.85;14.95;;;7.40;75.40;;;;;;5066724;28;20052;-72
2021/05/02 00:26:31;;;;;;;21.65;16.13;;;7.30;75.50;;;;;;5075312;28;20032;-72
2021/05/02 00:28:58;;;;;;;17.88;14.35;;;7.30;75.80;;;;;;5094292;28;20430;-72
2021/05/02 00:31:24;;;;;;;17.70;14.18;;;7.30;76.10;;;;;;5093138;28;20028;-72
2021/05/02 00:33:51;;;;;;;20.80;13.98;;;7.30;76.00;;;;;;5074176;28;20036;-72
2021/05/02 00:36:17;;;;;;;17.02;13.80;;;7.30;76.00;;;;;;5056012;28;20028;-72
2021/05/02 00:38:43;;;;;;;20.75;15.63;;;7.30;75.90;;;;;;5090516;28;20111;-72
2021/05/02 00:41:16;;;;;;;18.75;13.57;;;7.20;75.80;;;;;;5070353;28;20104;-73
2021/05/02 00:43:54;;;;;;;16.70;13.32;;;7.20;76.00;;;;;;5099252;28;20051;-72
2021/05/02 00:46:27;;;;;;;20.08;14.48;;;7.20;76.10;;;;;;5074687;28;20101;-72
2021/05/02 00:49:06;;;;;;;19.75;14.80;;;7.20;76.30;;;;;;5106972;28;20032;-72
2021/05/02 00:51:38;;;;;;;18.65;14.32;;;7.20;76.50;;;;;;5091178;28;20099;-72
2021/05/02 00:54:07;;;;;;;21.60;14.45;;;7.20;76.60;;;;;;5090449;28;20044;-72
2021/05/02 00:56:36;;;;;;;18.00;14.77;;;7.20;76.60;;;;;;5057357;28;20382;-72
2021/05/02 00:59:20;;;;;;;21.98;16.40;;;7.30;76.50;;;;;;5073534;28;20032;-72
2021/05/02 01:01:50;;;;;;;28.55;18.27;;;7.30;76.80;;;;;;5084150;28;20365;-72
2021/05/02 01:04:30;;;;;;;20.88;16.33;;;7.30;76.90;;;;;;5083732;28;20477;-72
2021/05/02 01:07:02;;;;;;;;;;;7.40;77.20;;;;;;5067362;28;20043;-72
2021/05/02 01:09:29;;;;;;;23.58;16.90;;;7.30;77.50;;;;;;5100048;28;19913;-72
2021/05/02 01:11:58;;;;;;;24.70;18.50;;;7.30;77.60;;;;;;5062350;28;20056;-72
2021/05/02 01:14:24;;;;;;;;;;;7.30;77.90;;;;;;5086640;28;20225;-72
2021/05/02 01:16:54;;;;;;;24.42;17.42;;;7.30;77.90;;;;;;5087117;28;19908;-72
2021/05/02 01:19:19;;;;;;;;;;;7.20;78.30;;;;;;5084087;28;20028;-72
2021/05/02 01:21:49;;;;;;;27.25;19.52;;;7.20;78.20;;;;;;5092942;28;19915;-72
2021/05/02 01:24:15;;;;;;;27.83;19.85;;;7.20;78.60;;;;;;5092657;28;20054;-72
2021/05/02 01:26:43;;;;;;;29.40;20.67;;;7.10;78.80;;;;;;5059935;28;20032;-72
2021/05/02 01:29:10;;;;;;;28.20;19.65;;;7.10;79.00;;;;;;5091440;28;20024;-72
2021/05/02 01:31:36;;;;;;;30.45;19.98;;;7.10;79.20;;;;;;5091161;28;20020;-72
2021/05/02 01:34:02;;;;;;;27.70;20.17;;;7.10;79.20;;;;;;5074431;28;20549;-72
2021/05/02 01:36:27;;;;;;;26.50;21.50;;;7.00;79.60;;;;;;5043477;28;20047;-72
2021/05/02 01:38:59;;;;;;;25.88;19.90;;;7.00;79.70;;;;;;5052036;28;20108;-72
2021/05/02 01:41:25;;;;;;;26.30;19.70;;;7.00;79.80;;;;;;5077226;28;20025;-72
2021/05/02 01:43:52;;;;;;;26.42;18.63;;;7.00;79.90;;;;;;5076639;28;20039;-72
2021/05/02 01:46:25;;;;;;;27.50;19.67;;;7.00;79.90;;;;;;5070873;28;20038;-72
2021/05/02 01:48:51;;;;;;;30.40;21.73;;;7.00;80.40;;;;;;5091834;28;20052;-72
2021/05/02 01:51:20;;;;;;;26.95;18.40;;;7.10;79.70;;;;;;5070648;28;20036;-72
2021/05/02 01:53:46;;;;;;;30.23;22.23;;;7.10;79.90;;;;;;5071296;28;20028;-72
2021/05/02 01:56:15;;;;;;;28.17;20.77;;;7.10;79.80;;;;;;5069954;28;20127;-72
2021/05/02 01:58:41;;;;;;;26.83;19.40;;;7.00;80.10;;;;;;5090973;28;20099;-72
2021/05/02 02:01:15;;;;;;;36.35;22.80;;;7.00;80.20;;;;;;5068157;28;20119;-72
2021/05/02 02:03:44;;;;;;;26.55;20.48;;;7.00;80.40;;;;;;5091429;28;20020;-72
2021/05/02 02:06:11;;;;;;;25.42;19.23;;;7.00;80.90;;;;;;5068096;28;20125;-72
2021/05/02 02:08:37;;;;;;;26.13;19.48;;;7.00;81.00;;;;;;5064103;28;20037;-72
2021/05/02 02:11:04;;;;;;;34.28;21.55;;;7.00;81.10;;;;;;5087438;28;20047;-72
2021/05/02 02:13:29;;;;;;;27.98;21.52;;;7.10;81.30;;;;;;5092649;28;20024;-72
2021/05/02 02:15:55;;;;;;;28.60;19.10;;;7.10;81.60;;;;;;5057676;28;20021;-72
2021/05/02 02:18:21;;;;;;;28.27;20.75;;;7.10;81.70;;;;;;5055959;28;20024;-72
2021/05/02 02:20:52;;;;;;;29.25;19.40;;;7.20;81.80;;;;;;5054930;28;20021;-72
2021/05/02 02:23:20;;;;;;;35.65;22.20;;;7.20;81.90;;;;;;5090103;28;20044;-72
2021/05/02 02:25:48;;;;;;;29.88;19.48;;;7.20;82.20;;;;;;5083188;28;20020;-72
2021/05/02 02:28:16;;;;;;;25.90;18.55;;;7.10;82.30;;;;;;5055875;28;20039;-72
2021/05/02 02:30:45;;;;;;;27.15;20.20;;;7.20;82.30;;;;;;5095358;28;20042;-72
2021/05/02 02:33:11;;;;;;;23.08;17.58;;;7.30;82.50;;;;;;5060510;28;20033;-72
2021/05/02 02:35:52;;;;;;;29.33;19.05;;;7.30;82.40;;;;;;5095598;28;20024;-72
2021/05/02 02:38:26;;;;;;;30.63;18.55;;;7.30;82.30;;;;;;5077471;28;20067;-72
2021/05/02 02:40:56;;;;;;;26.45;18.50;;;7.40;82.20;;;;;;5083850;28;20028;-72
2021/05/02 02:43:35;;;;;;;24.27;18.67;;;7.40;82.20;;;;;;5076260;28;20126;-72
2021/05/02 02:46:10;;;;;;;;;;;7.40;82.20;;;;;;5079153;28;20362;-72
2021/05/02 02:48:41;;;;;;;26.98;18.42;;;7.30;82.00;;;;;;5058499;28;20353;-72
2021/05/02 02:51:07;;;;;;;32.13;20.17;;;7.20;82.40;;;;;;5093917;28;20127;-72
2021/05/02 02:53:34;;;;;;;22.70;17.15;;;7.30;82.40;;;;;;5095250;28;20024;-72
2021/05/02 02:56:23;;;;;;;24.95;17.55;;;7.20;82.40;;;;;;5076284;28;20468;-72
2021/05/02 02:58:54;;;;;;;;;;;7.20;82.50;;;;;;5071476;28;20036;-72
2021/05/02 03:01:20;;;;;;;28.67;18.02;;;7.10;82.30;;;;;;5096026;28;19908;-72
2021/05/02 03:03:47;;;;;;;22.92;17.58;;;7.10;82.70;;;;;;5062866;28;20434;-72
2021/05/02 03:06:18;;;;;;;23.50;17.23;;;7.10;82.70;;;;;;5089992;28;20389;-72
2021/05/02 03:08:48;;;;;;;21.98;16.85;;;7.10;82.80;;;;;;5075484;28;20064;-72
2021/05/02 03:11:15;;;;;;;24.45;17.38;;;7.00;82.90;;;;;;5075940;28;20120;-72
2021/05/02 03:13:46;;;;;;;25.50;17.23;;;7.00;83.10;;;;;;5089140;28;20482;-74
2021/05/02 03:16:12;;;;;;;26.05;17.55;;;6.90;83.20;;;;;;5083776;28;20024;-72
2021/05/02 03:18:52;;;;;;;28.52;17.30;;;6.90;83.10;;;;;;5088546;28;20031;-72
2021/05/02 03:21:22;;;;;;;27.63;18.05;;;6.90;83.30;;;;;;5075503;28;20372;-72
2021/05/02 03:23:51;;;;;;;25.02;17.38;;;6.90;83.10;;;;;;5072399;28;20088;-72
2021/05/02 03:26:21;;;;;;;23.30;16.40;;;6.80;83.00;;;;;;5073657;28;20482;-72
2021/05/02 03:28:53;;;;;;;20.05;15.25;;;6.80;83.20;;;;;;5057935;28;20029;-72
2021/05/02 03:31:24;;;;;;;23.48;16.35;;;6.70;83.30;;;;;;5064762;28;20041;-72
2021/05/02 03:33:54;;;;;;;25.58;17.25;;;6.70;83.30;;;;;;5072639;28;20036;-72
2021/05/02 03:36:38;;;;;;;24.15;16.05;;;6.70;83.30;;;;;;5073962;28;20029;-72
2021/05/02 03:39:05;;;;;;;29.73;17.42;;;6.60;83.40;;;;;;5055905;28;20474;-72
2021/05/02 03:41:34;;;;;;;24.17;16.08;;;6.60;83.40;;;;;;5055297;28;20021;-73
2021/05/02 03:44:00;;;;;;;25.02;15.55;;;6.50;83.40;;;;;;5061736;28;20021;-72
2021/05/02 03:46:26;;;;;;;26.23;18.13;;;6.50;83.50;;;;;;5048923;28;20101;-73
2021/05/02 03:48:59;;;;;;;24.30;15.13;;;6.50;83.40;;;;;;5070148;28;20017;-73
2021/05/02 03:51:26;;;;;;;24.42;16.42;;;6.50;83.40;;;;;;5066342;28;20417;-73
2021/05/02 03:53:52;;;;;;;24.77;16.20;;;6.50;83.30;;;;;;5054790;28;20037;-73
2021/05/02 03:56:34;;;;;;;29.23;17.50;;;6.50;83.20;;;;;;5062118;28;20021;-72
2021/05/02 03:59:08;;;;;;;27.42;16.02;;;6.50;83.30;;;;;;5053337;28;20029;-72
2021/05/02 04:01:33;;;;;;;24.35;15.57;;;6.40;83.40;;;;;;5060767;28;20029;-72
2021/05/02 04:03:59;;;;;;;28.35;16.65;;;6.30;83.40;;;;;;5057153;28;20478;-72
2021/05/02 04:06:28;;;;;;;24.08;16.02;;;6.30;83.30;;;;;;5059389;28;20056;-72
2021/05/02 04:08:54;;;;;;;20.27;14.25;;;6.30;83.30;;;;;;5073568;28;20571;-72
2021/05/02 04:11:20;;;;;;;28.35;17.20;;;6.30;83.10;;;;;;5058244;28;20448;-72
2021/05/02 04:13:46;;;;;;;25.30;16.27;;;6.30;83.10;;;;;;5067429;28;20032;-72
2021/05/02 04:16:16;;;;;;;21.50;15.48;;;6.30;83.00;;;;;;5072416;28;20047;-79
2021/05/02 04:18:42;;;;;;;24.00;15.57;;;6.30;83.10;;;;;;5074917;28;20090;-79
2021/05/02 04:21:09;;;;;;;24.30;15.05;;;6.30;83.00;;;;;;5070065;28;20037;-79
2021/05/02 04:23:35;;;;;;;23.90;15.63;;;6.30;82.90;;;;;;5085087;28;20087;-79
2021/05/02 04:26:01;;;;;;;25.92;15.00;;;6.40;82.80;;;;;;5094739;28;20067;-79
2021/05/02 04:28:27;;;;;;;23.65;15.00;;;6.40;82.60;;;;;;5076997;28;20126;-79
2021/05/02 04:30:52;;;;;;;27.50;14.70;;;6.40;82.40;;;;;;5094684;28;20028;-79
2021/05/02 04:33:18;;;;;;;30.02;16.40;;;6.40;82.20;;;;;;5094621;28;20096;-79
2021/05/02 04:35:43;;;;;;;25.23;16.25;;;6.40;82.30;;;;;;5094488;28;20024;-79
2021/05/02 04:38:09;;;;;;;25.50;15.95;;;6.30;82.20;;;;;;5065990;28;20056;-79
2021/05/02 04:40:35;;;;;;;25.70;15.77;;;6.20;82.60;;;;;;5056650;28;20173;-79
2021/05/02 04:43:00;;;;;;;29.60;17.70;;;6.20;82.80;;;;;;5074469;28;20039;-80
2021/05/02 04:45:26;;;;;;;27.77;16.05;;;6.20;82.90;;;;;;5073237;28;20071;-79
2021/05/02 04:47:54;;;;;;;26.30;16.38;;;6.20;83.10;;;;;;5074231;28;20495;-79
2021/05/02 04:50:20;;;;;;;23.73;17.17;;;6.10;83.30;;;;;;5089828;28;20035;-80
2021/05/02 04:52:46;;;;;;;22.73;15.07;;;6.10;83.30;;;;;;5055751;28;20036;-79
2021/05/02 04:55:12;;;;;;;24.77;14.73;;;6.20;83.30;;;;;;5087931;28;20050;-80
2021/05/02 04:57:38;;;;;;;23.02;15.40;;;6.20;83.20;;;;;;5094400;28;20035;-80
2021/05/02 05:00:06;;;;;;;24.70;14.50;;;6.20;83.20;;;;;;5094149;28;20020;-79
2021/05/02 05:02:31;;;;;;;20.10;13.27;;;6.20;83.20;;;;;;5092833;28;20477;-79
2021/05/02 05:04:57;;;;;;;23.98;12.85;;;6.30;83.20;;;;;;5085818;28;20042;-79
2021/05/02 05:07:22;;;;;;;18.17;13.20;;;6.30;82.90;;;;;;5075537;28;20435;-79
2021/05/02 05:09:48;;;;;;;25.13;15.35;;;6.40;82.80;;;;;;5073670;28;20059;-79
2021/05/02 05:12:14;;;;;;;21.55;13.48;;;6.40;82.60;;;;;;5073815;28;20036;-79
2021/05/02 05:14:39;;;;;;;19.00;13.27;;;6.40;82.60;;;;;;5074749;28;20032;-79
2021/05/02 05:17:05;;;;;;;21.15;13.68;;;6.50;82.50;;;;;;5075650;28;20112;-79
2021/05/02 05:19:30;;;;;;;23.65;14.07;;;6.50;82.30;;;;;;5082452;28;20381;-80
2021/05/02 05:21:56;;;;;;;25.52;14.73;;;6.50;82.10;;;;;;5067584;28;20032;-79
2021/05/02 05:24:21;;;;;;;21.60;12.43;;;6.60;82.00;;;;;;5075288;28;20051;-79
2021/05/02 05:26:47;;;;;;;25.73;13.90;;;6.60;82.00;;;;;;5058412;28;20453;-79
2021/05/02 05:29:13;;;;;;;19.23;13.70;;;6.60;81.90;;;;;;5087806;28;20508;-79
2021/05/02 05:31:38;;;;;;;19.77;13.02;;;6.70;81.90;;;;;;5073616;28;20040;-79
2021/05/02 05:34:04;;;;;;;21.38;13.30;;;6.80;81.70;;;;;;5056109;28;20101;-80
2021/05/02 05:36:29;;;;;;;17.45;12.57;;;6.90;81.60;;;;;;5093671;28;20039;-79
2021/05/02 05:38:55;;;;;;;24.58;13.57;;;6.90;81.50;;;;;;5090495;28;20040;-79
2021/05/02 05:41:20;;;;;;;20.02;12.43;;;6.90;81.30;;;;;;5083356;28;20035;-79
2021/05/02 05:43:46;;;;;;;21.08;13.32;;;7.00;81.20;;;;;;5093449;28;20032;-79
2021/05/02 05:46:13;;;;;;;22.13;12.77;;;7.10;81.10;;;;;;5093649;28;20115;-80
2021/05/02 05:48:41;;;;;;;19.67;12.95;;;7.20;80.80;;;;;;5075646;28;20026;-79
2021/05/02 05:51:08;;;;;;;21.50;12.90;;;7.30;80.50;;;;;;5073318;28;20024;-79
2021/05/02 05:53:34;;;;;;;26.60;12.68;;;7.30;80.10;;;;;;5073081;28;20032;-79
2021/05/02 05:56:00;;;;;;;19.70;12.20;;;7.40;80.30;;;;;;5055352;28;20024;-80
2021/05/02 05:58:27;;;;;;;20.42;12.70;;;7.40;80.20;;;;;;5089267;28;20038;-79
2021/05/02 06:00:53;;;;;;;19.20;11.73;;;7.50;80.10;;;;;;5093248;28;20411;-79
2021/05/02 06:03:18;;;;;;;22.33;11.95;;;7.60;80.40;;;;;;5073993;28;20036;-79
2021/05/02 06:05:44;;;;;;;14.90;10.93;;;7.60;79.30;;;;;;5075777;28;20062;-79
2021/05/02 06:08:09;;;;;;;14.73;9.77;;;7.70;79.30;;;;;;5077324;28;20024;-79
2021/05/02 06:10:35;;;;;;;20.40;10.32;;;7.70;79.10;;;;;;5060711;28;20373;-79
2021/05/02 06:13:01;;;;;;;17.25;9.80;;;7.80;78.80;;;;;;5059400;28;20047;-79
2021/05/02 06:15:26;;;;;;;16.60;9.50;;;7.80;78.40;;;;;;5092737;28;20029;-79
2021/05/02 06:17:52;;;;;;;15.32;9.05;;;7.90;77.90;;;;;;5086247;28;20511;-79
2021/05/02 06:20:18;;;;;;;17.23;8.80;;;8.00;77.70;;;;;;5117594;28;20031;-79
2021/05/02 06:22:43;;;;;;;14.15;8.48;;;8.10;77.40;;;;;;5099254;28;20065;-79
2021/05/02 06:25:10;;;;;;;16.55;8.45;;;8.20;77.10;;;;;;5103409;28;20489;-79
2021/05/02 06:27:35;;;;;;;14.90;8.20;;;8.30;76.60;;;;;;5097258;28;20027;-79
2021/05/02 06:30:06;;;;;;;15.63;8.85;;;8.40;76.00;;;;;;5081981;28;20111;-80
2021/05/02 06:32:32;;;;;;;14.40;8.32;;;8.50;75.80;;;;;;5091345;28;20028;-80
2021/05/02 06:34:58;;;;;;;15.63;7.95;;;8.60;75.50;;;;;;5076753;28;20116;-79
2021/05/02 06:37:24;;;;;;;14.38;6.90;;;8.70;75.10;;;;;;5076651;28;20025;-79
2021/05/02 06:39:50;;;;;;;13.02;6.43;;;8.80;74.30;;;;;;5058618;28;20028;-80
2021/05/02 06:42:16;;;;;;;15.02;6.53;;;8.90;73.70;;;;;;5058868;28;20497;-80
2021/05/02 06:44:41;;;;;;;10.85;5.93;;;9.00;73.10;;;;;;5077100;28;20043;-80
2021/05/02 06:47:07;;;;;;;8.75;5.22;;;9.10;72.90;;;;;;5078713;28;20433;-80
2021/05/02 06:49:33;;;;;;;12.20;5.43;;;9.20;72.60;;;;;;5096828;28;20032;-80
2021/05/02 06:51:58;;;;;;;10.85;5.70;;;9.30;71.80;;;;;;5096973;28;20369;-79
2021/05/02 06:54:24;;;;;;;11.25;5.50;;;9.40;71.30;;;;;;5089723;28;20086;-79
2021/05/02 06:56:49;;;;;;;10.35;5.03;;;9.50;71.20;;;;;;5076420;28;20385;-79
2021/05/02 06:59:16;;;;;;;14.38;5.15;;;9.60;71.00;;;;;;5058561;28;20024;-80
2021/05/02 07:01:42;;;;;;;12.13;4.63;;;9.70;70.30;;;;;;5076415;28;20032;-80
2021/05/02 07:04:07;;;;;;;11.43;4.57;;;9.80;69.40;;;;;;5076345;28;20579;-79
2021/05/02 07:06:34;;;;;;;9.30;4.22;;;9.90;69.30;;;;;;5058304;28;20096;-79
2021/05/02 07:09:00;;;;;;;10.55;4.10;;;10.00;69.80;;;;;;5075977;28;20036;-79
2021/05/02 07:11:25;;;;;;;9.48;4.20;;;10.20;69.10;;;;;;5076253;28;20362;-79
2021/05/02 07:13:51;;;;;;;9.55;3.17;;;10.30;68.90;;;;;;5076147;28;20542;-80
2021/05/02 07:16:18;;;;;;;8.13;3.25;;;10.50;66.30;;;;;;5085635;28;20031;-79
2021/05/02 07:18:44;;;;;;;8.45;2.83;;;10.50;65.90;;;;;;5096352;28;20475;-79
2021/05/02 07:21:10;;;;;;;10.18;2.70;;;10.40;64.70;;;;;;5095913;28;20482;-80
2021/05/02 07:23:40;;;;;;;6.90;2.85;;;10.20;64.90;;;;;;5077932;28;20170;-80
2021/05/02 07:26:06;;;;;;;6.97;2.10;;;10.10;65.10;;;;;;5096123;28;20330;-81
2021/05/02 07:28:32;;;;;;;7.03;2.15;;;10.00;65.10;;;;;;5095283;28;20031;-81
2021/05/02 07:30:58;;;;;;;9.98;2.03;;;9.90;65.30;;;;;;5096390;28;20028;-81
2021/05/02 07:33:26;;;;;;;7.53;2.38;;;10.00;64.90;;;;;;5089384;28;20063;-81
2021/05/02 07:35:52;;;;;;;8.10;2.40;;;10.10;63.10;;;;;;5095235;28;20016;-81
2021/05/02 07:38:18;;;;;;;6.70;2.38;;;10.10;62.40;;;;;;5075793;28;20531;-81
2021/05/02 07:40:44;;;;;;;5.32;2.35;;;10.20;62.10;;;;;;5096196;28;20008;-81
2021/05/02 07:43:09;;;;;;;7.80;2.63;;;10.40;62.00;;;;;;5095697;28;20020;-81
2021/05/02 07:45:35;;;;;;;8.10;2.60;;;10.60;61.30;;;;;;5086612;28;20524;-82
2021/05/02 07:48:00;;;;;;;10.02;2.60;;;10.60;60.10;;;;;;5091235;28;20485;-81
2021/05/02 07:50:26;;;;;;;9.18;2.55;;;10.40;60.00;;;;;;5085989;28;20055;-81
2021/05/02 07:52:52;;;;;;;6.90;2.00;;;10.20;61.20;;;;;;5091681;28;20514;-81
2021/05/02 07:55:17;;;;;;;8.73;2.20;;;10.20;61.00;;;;;;5095404;28;20020;-81
2021/05/02 07:57:43;;;;;;;6.97;1.80;;;10.20;60.20;;;;;;5077732;28;20082;-79
2021/05/02 08:00:09;;;;;;;5.95;1.90;;;10.30;60.20;;;;;;5095526;28;20028;-80
2021/05/02 08:02:35;;;;;;;7.03;2.30;;;10.40;59.30;;;;;;5095251;28;20468;-80
2021/05/02 08:05:00;;;;;;;6.60;2.08;;;10.40;59.10;;;;;;5095142;28;20058;-81
2021/05/02 08:07:26;;;;;;;9.98;2.50;;;10.70;59.30;;;;;;5095166;28;20032;-81
2021/05/02 08:09:51;;;;;;;8.98;2.65;;;11.10;59.40;;;;;;5095068;28;20480;-80
2021/05/02 08:12:17;;;;;;;9.13;2.35;;;11.50;58.20;;;;;;5076753;28;20104;-80
2021/05/02 08:14:43;;;;;;;10.25;2.45;;;11.70;57.50;;;;;;5077351;28;20408;-80
2021/05/02 08:17:09;;;;;;;3.58;2.13;;;11.60;55.50;;;;;;5058793;28;20068;-79
2021/05/02 08:19:35;;;;;;;4.78;2.22;;;11.30;56.70;;;;;;5081623;28;20081;-80
2021/05/02 08:22:03;;;;;;;7.07;2.20;;;11.20;57.30;;;;;;5094982;28;20020;-81
2021/05/02 08:24:29;;;;;;;9.15;3.33;;;11.20;55.50;;;;;;5084587;28;20064;-81
2021/05/02 08:26:55;;;;;;;3.88;2.40;;;11.50;56.30;;;;;;5056834;28;20028;-81
2021/05/02 08:29:21;;;;;;;5.88;2.55;;;11.90;56.40;;;;;;5056600;28;20024;-81
2021/05/02 08:31:47;;;;;;;7.47;2.03;;;12.30;55.00;;;;;;5039965;28;20037;-81
2021/05/02 08:34:12;;;;;;;6.90;1.90;;;12.50;53.10;;;;;;5068289;28;20526;-82
2021/05/02 08:36:38;;;;;;;5.40;2.13;;;12.30;53.10;;;;;;5073035;28;20023;-82
2021/05/02 08:39:04;;;;;;;6.00;2.10;;;12.00;54.10;;;;;;5091276;28;20103;-81
2021/05/02 08:41:29;;;;;;;5.35;2.25;;;11.80;54.90;;;;;;5072851;28;20020;-81
2021/05/02 08:43:56;;;;;;;8.80;2.30;;;11.60;55.40;;;;;;5055742;28;20024;-81
2021/05/02 08:46:24;;;;;;;5.03;2.10;;;11.70;56.00;;;;;;5090638;28;20480;-81
2021/05/02 08:48:50;;;;;;;7.28;1.90;;;11.90;55.60;;;;;;5073546;28;20043;-81
2021/05/02 08:51:16;;;;;;;7.85;2.10;;;12.10;54.30;;;;;;5076523;28;20028;-79
2021/05/02 08:53:42;;;;;;;7.25;1.80;;;12.30;53.40;;;;;;5040732;28;20043;-79
2021/05/02 08:56:08;;;;;;;3.10;1.13;;;12.60;52.00;;;;;;5056049;28;20048;-79
2021/05/02 08:58:34;;;;;;;4.35;1.20;;;12.90;50.00;;;;;;5091437;28;20022;-79
2021/05/02 09:01:01;;;;;;;4.05;1.33;;;13.30;47.90;;;;;;5094142;28;20024;-79
2021/05/02 09:03:47;;;;;;;5.70;1.55;;;13.50;48.30;;;;;;5078008;28;20032;-79
2021/05/02 09:06:29;;;;;;;4.50;1.55;;;13.60;48.10;;;;;;5082029;28;20024;-79
2021/05/02 09:08:57;;;;;;;4.25;1.50;;;13.10;49.20;;;;;;5076336;28;20388;-79
2021/05/02 09:11:30;;;;;;;6.90;1.63;;;12.60;50.20;;;;;;5093913;28;20016;-78
2021/05/02 09:13:57;;;;;;;4.10;1.40;;;12.20;51.30;;;;;;5093711;28;20072;-79
2021/05/02 09:16:23;;;;;;;5.20;1.40;;;11.90;50.90;;;;;;5093621;28;20474;-78
2021/05/02 09:18:49;;;;;;;4.68;1.33;;;11.70;51.70;;;;;;5073616;28;20104;-78
2021/05/02 09:21:24;;;;;;;8.40;1.67;;;11.90;52.80;;;;;;5073686;28;20024;-79
2021/05/02 09:23:50;;;;;;;6.63;1.55;;;12.30;52.10;;;;;;5083269;28;20400;-79
2021/05/02 09:26:22;;;;;;;6.00;1.60;;;12.80;51.00;;;;;;5093629;28;20123;-79
2021/05/02 09:28:55;;;;;;;8.15;1.65;;;13.00;49.50;;;;;;5093659;28;20376;-79
2021/05/02 09:31:27;;;;;;;6.25;1.65;;;12.70;50.10;;;;;;5075375;28;20365;-79
2021/05/02 09:33:54;;;;;;;8.50;1.42;;;12.40;50.30;;;;;;5092992;28;20542;-79
2021/05/02 09:36:21;;;;;;;3.05;1.63;;;12.10;50.70;;;;;;5075040;28;20023;-79
2021/05/02 09:38:48;;;;;;;6.10;1.33;;;11.90;50.90;;;;;;5074108;28;20016;-79
2021/05/02 09:41:16;;;;;;;6.35;1.42;;;11.60;52.20;;;;;;5093365;28;20050;-79
2021/05/02 09:43:46;;;;;;;3.78;1.25;;;11.50;52.40;;;;;;5091317;28;20024;-78
2021/05/02 09:46:34;;;;;;;7.63;1.35;;;11.40;52.50;;;;;;5093466;28;20032;-79
2021/05/02 09:49:09;;;;;;;9.13;2.03;;;11.40;52.90;;;;;;5083965;28;20052;-79
2021/05/02 09:51:42;;;;;;;7.30;1.50;;;11.30;53.20;;;;;;5075459;28;20048;-78
2021/05/02 09:54:19;;;;;;;7.72;1.52;;;11.30;53.80;;;;;;5088460;28;20108;-78
2021/05/02 09:56:50;;;;;;;8.07;1.25;;;11.40;53.50;;;;;;5083886;28;20103;-79
2021/05/02 09:59:31;;;;;;;4.50;1.00;;;12.10;54.60;;;;;;5086452;28;20031;-79
2021/05/02 10:02:11;;;;;;;1.70;0.82;;;12.50;51.10;;;;;;5091904;28;20022;-79
2021/05/02 10:04:51;;;;;;;4.10;1.08;;;12.70;47.70;;;;;;5080434;28;20099;-79
2021/05/02 10:07:26;;;;;;;3.95;1.10;;;12.60;47.60;;;;;;5086628;28;20020;-80
2021/05/02 10:09:53;;;;;;;1.92;1.20;;;12.30;48.00;;;;;;5078891;28;20031;-78
2021/05/02 10:12:19;;;;;;;2.55;1.10;;;12.20;48.90;;;;;;5056606;28;20085;-79
2021/05/02 10:14:47;;;;;;;3.38;1.15;;;12.20;49.60;;;;;;5092049;28;20477;-79
2021/05/02 10:17:13;;;;;;;4.72;1.08;;;12.50;51.80;;;;;;5089597;28;20488;-78
2021/05/02 10:19:39;;;;;;;1.50;0.90;;;13.10;48.80;;;;;;5093122;28;20024;-78
2021/05/02 10:22:06;;;;;;;4.32;0.98;;;13.30;46.20;;;;;;5093152;28;20048;-78
2021/05/02 10:24:31;;;;;;;8.00;1.08;;;13.30;46.40;;;;;;5088612;28;20044;-78
2021/05/02 10:26:57;;;;;;;3.42;0.90;;;13.20;45.50;;;;;;5079967;28;20115;-78
2021/05/02 10:29:28;;;;;;;4.25;1.20;;;13.00;45.80;;;;;;5074281;28;20032;-78
2021/05/02 10:32:11;;;;;;;3.28;1.30;;;12.70;46.20;;;;;;5084158;28;20020;-78
2021/05/02 10:34:42;;;;;;;4.03;1.17;;;12.50;47.50;;;;;;5071371;28;20039;-78
2021/05/02 10:37:27;;;;;;;4.20;1.30;;;12.30;47.90;;;;;;5092899;28;20043;-78
2021/05/02 10:39:59;;;;;;;5.57;1.30;;;12.10;49.00;;;;;;5092597;28;20025;-79
2021/05/02 10:42:50;;;;;;;3.72;1.08;;;11.90;49.80;;;;;;5092997;28;20024;-78
2021/05/02 10:45:28;;;;;;;5.82;1.17;;;11.80;50.30;;;;;;5080473;28;20038;-78
2021/05/02 10:47:58;;;;;;;4.13;1.33;;;11.60;50.40;;;;;;5113289;28;20053;-78
2021/05/02 10:50:44;;;;;;;4.15;1.30;;;11.50;50.00;;;;;;5099044;28;20025;-78
2021/05/02 10:53:13;;;;;;;4.95;1.10;;;11.50;50.00;;;;;;5080579;28;20481;-78
2021/05/02 10:56:00;;;;;;;;;;;11.50;50.70;;;;;;5078680;28;20075;-78
2021/05/02 10:58:38;;;;;;;5.13;1.55;;;11.70;51.20;;;;;;5076407;28;19912;-78
2021/05/02 11:01:23;;;;;;;3.80;1.40;;;12.40;51.50;;;;;;5059945;28;20078;-79
2021/05/02 11:03:53;;;;;;;4.03;1.60;;;13.20;48.90;;;;;;5096452;28;20440;-79
2021/05/02 11:06:37;;;;;;;6.38;1.60;;;13.60;47.00;;;;;;5078967;28;20024;-78
2021/05/02 11:09:05;;;;;;;4.50;1.50;;;13.50;46.30;;;;;;5096271;28;20157;-78
2021/05/02 11:11:31;;;;;;;6.25;1.50;;;13.20;45.50;;;;;;5078116;28;20038;-78
2021/05/02 11:16:42;;;;;;;5.13;1.10;;;12.80;46.80;;;;;;5095890;28;20024;-79
2021/05/02 11:19:29;;;;;;;3.80;1.10;;;12.60;47.30;;;;;;5077898;28;20031;-79
2021/05/02 11:22:01;;;;;;;5.47;1.30;;;12.50;47.30;;;;;;5067515;28;20040;-79
2021/05/02 11:24:49;;;;;;;3.10;1.13;;;12.50;47.40;;;;;;5095904;28;20066;-79
2021/05/02 11:27:36;;;;;;;6.33;1.10;;;12.40;47.50;;;;;;5096018;28;20488;-78
2021/05/02 11:32:30;;;;;;;1.38;1.00;;;12.40;47.90;;;;;;5095929;28;20588;-79
2021/05/02 11:35:00;;;;;;;4.13;0.98;;;12.30;47.60;;;;;;5095723;28;20028;-79
2021/05/02 11:37:44;;;;;;;4.20;1.35;;;12.30;48.00;;;;;;5095779;28;20032;-79
2021/05/02 11:40:27;;;;;;;5.65;1.50;;;12.30;47.40;;;;;;5096135;28;20039;-79
2021/05/02 11:43:12;;;;;;;4.25;1.30;;;12.30;46.60;;;;;;5095692;28;20024;-79
2021/05/02 11:45:41;;;;;;;3.55;1.40;;;12.30;46.90;;;;;;5095246;28;20020;-79
2021/05/02 11:48:07;;;;;;;6.95;1.25;;;12.30;47.40;;;;;;5095734;28;20484;-79
2021/05/02 11:50:41;;;;;;;2.47;1.52;;;12.40;46.90;;;;;;5095635;28;20036;-80
2021/05/02 11:53:06;;;;;;;5.25;1.30;;;12.40;47.50;;;;;;5095709;28;20072;-79
2021/05/02 11:55:36;;;;;;;2.15;1.10;;;12.50;47.10;;;;;;5091812;28;20108;-79
2021/05/02 11:58:05;;;;;;;4.13;1.30;;;12.50;47.20;;;;;;5090042;28;20086;-79
2021/05/02 12:00:44;;;;;;;4.13;1.20;;;12.50;47.90;;;;;;5095122;28;20020;-79
2021/05/02 12:03:31;;;;;;;2.97;1.40;;;12.60;47.80;;;;;;5075922;28;20486;-80
2021/05/02 12:05:57;;;;;;;3.95;1.63;;;12.70;48.20;;;;;;5075145;28;20067;-80
2021/05/02 12:08:27;;;;;;;3.25;1.38;;;12.80;47.70;;;;;;5056808;28;20064;-80
2021/05/02 12:10:53;;;;;;;3.92;1.20;;;12.80;47.60;;;;;;5074911;28;20354;-81
2021/05/02 12:13:49;;;;;;;4.72;1.45;;;12.90;46.90;;;;;;5078878;28;20053;-80
2021/05/02 12:16:20;;;;;;;6.93;1.38;;;12.90;47.30;;;;;;5088013;28;20021;-80
2021/05/02 12:18:52;;;;;;;2.88;1.48;;;13.10;47.60;;;;;;5087760;28;20057;-81
2021/05/02 12:21:27;;;;;;;2.28;1.17;;;13.20;47.50;;;;;;5076618;28;20115;-80
2021/05/02 12:24:04;;;;;;;2.90;1.35;;;13.30;46.70;;;;;;5094734;28;20019;-80
2021/05/02 12:26:31;;;;;;;5.90;1.45;;;13.40;46.20;;;;;;5076850;28;20031;-80
2021/05/02 12:29:08;;;;;;;2.80;1.30;;;13.50;45.60;;;;;;5077058;28;20488;-80
2021/05/02 12:31:35;;;;;;;1.95;1.10;;;13.60;46.30;;;;;;5094826;28;20043;-80
2021/05/02 12:34:04;;;;;;;4.75;1.45;;;13.80;45.50;;;;;;5076904;28;20034;-80
2021/05/02 12:36:30;;;;;;;4.80;1.30;;;13.80;45.00;;;;;;5094682;28;20047;-80
2021/05/02 12:39:05;;;;;;;5.00;1.45;;;13.70;44.80;;;;;;5076523;28;20489;-80
2021/05/02 12:41:33;;;;;;;2.22;1.42;;;13.70;44.60;;;;;;5076500;28;20436;-80
2021/05/02 12:44:35;;;;;;;3.08;1.30;;;13.70;43.60;;;;;;5081573;28;20036;-80
2021/05/02 12:47:03;;;;;;;1.67;1.25;;;13.60;43.50;;;;;;4996353;28;20025;-80
2021/05/02 12:49:30;;;;;;;3.23;1.40;;;13.60;44.10;;;;;;5063466;28;20036;-80
2021/05/02 12:52:13;;;;;;;4.45;1.48;;;13.60;44.00;;;;;;5074363;28;20020;-80
2021/05/02 12:54:39;;;;;;;4.43;1.40;;;13.60;44.10;;;;;;5089864;28;20031;-80
2021/05/02 12:57:05;;;;;;;4.15;1.63;;;13.60;44.50;;;;;;5056489;28;20021;-80
2021/05/02 13:02:17;;;;;;;5.07;1.58;;;13.50;44.90;;;;;;5074386;28;20032;-80